sensor_id;sensor_type;location;lat;lon;timestamp;temperature;humidity
71142;DHT22;58808;59.366;17.970;2024-02-26T00:01:23;1.80;99.90
71142;DHT22;58808;59.366;17.970;2024-02-26T00:03:49;1.80;99.90
71142;DHT22;58808;59.366;17.970;2024-02-26T00:06:15;1.80;99.90
71142;DHT22;58808;59.366;17.970;2024-02-26T00:08:41;1.80;99.90
71142;DHT22;58808;59.366;17.970;2024-02-26T00:11:07;1.90;99.90
71142;DHT22;58808;59.366;17.970;2024-02-26T00:13:32;1.90;99.90
71142;DHT22;58808;59.366;17.970;2024-02-26T00:15:58;1.90;99.90
71142;DHT22;58808;59.366;17.970;2024-02-26T00:18:24;2.00;99.90
71142;DHT22;58808;59.366;17.970;2024-02-26T00:20:49;2.00;99.90
71142;DHT22;58808;59.366;17.970;2024-02-26T00:23:15;2.00;99.90
71142;DHT22;58808;59.366;17.970;2024-02-26T00:25:41;2.00;99.90
71142;DHT22;58808;59.366;17.970;2024-02-26T00:28:09;2.10;99.90
71142;DHT22;58808;59.366;17.970;2024-02-26T00:30:35;2.10;99.90
71142;DHT22;58808;59.366;17.970;2024-02-26T00:33:01;2.20;99.90
71142;DHT22;58808;59.366;17.970;2024-02-26T00:35:26;2.20;99.90
71142;DHT22;58808;59.366;17.970;2024-02-26T00:37:52;2.20;99.90
71142;DHT22;58808;59.366;17.970;2024-02-26T00:40:18;2.10;99.90
71142;DHT22;58808;59.366;17.970;2024-02-26T00:42:44;2.20;99.90
71142;DHT22;58808;59.366;17.970;2024-02-26T00:45:12;2.10;99.90
71142;DHT22;58808;59.366;17.970;2024-02-26T00:47:38;2.10;99.90
71142;DHT22;58808;59.366;17.970;2024-02-26T00:50:07;2.10;99.90
71142;DHT22;58808;59.366;17.970;2024-02-26T00:52:33;2.00;99.90
71142;DHT22;58808;59.366;17.970;2024-02-26T00:54:59;2.10;99.90
71142;DHT22;58808;59.366;17.970;2024-02-26T00:57:25;2.00;99.90
71142;DHT22;58808;59.366;17.970;2024-02-26T00:59:51;2.00;99.90
71142;DHT22;58808;59.366;17.970;2024-02-26T01:02:16;1.90;99.90
71142;DHT22;58808;59.366;17.970;2024-02-26T01:04:42;2.00;99.90
71142;DHT22;58808;59.366;17.970;2024-02-26T01:07:09;1.90;99.90
71142;DHT22;58808;59.366;17.970;2024-02-26T01:09:35;1.90;99.90
71142;DHT22;58808;59.366;17.970;2024-02-26T01:12:01;1.90;99.90
71142;DHT22;58808;59.366;17.970;2024-02-26T01:14:28;2.00;99.90
71142;DHT22;58808;59.366;17.970;2024-02-26T01:16:53;2.10;99.90
71142;DHT22;58808;59.366;17.970;2024-02-26T01:19:19;2.00;99.90
71142;DHT22;58808;59.366;17.970;2024-02-26T01:21:45;2.00;99.90
71142;DHT22;58808;59.366;17.970;2024-02-26T01:24:10;2.10;99.90
71142;DHT22;58808;59.366;17.970;2024-02-26T01:26:36;2.10;99.90
71142;DHT22;58808;59.366;17.970;2024-02-26T01:29:02;2.20;99.90
71142;DHT22;58808;59.366;17.970;2024-02-26T01:31:27;2.20;99.90
71142;DHT22;58808;59.366;17.970;2024-02-26T01:33:54;2.20;99.90
71142;DHT22;58808;59.366;17.970;2024-02-26T01:36:19;2.20;99.90
71142;DHT22;58808;59.366;17.970;2024-02-26T01:38:45;2.10;99.90
71142;DHT22;58808;59.366;17.970;2024-02-26T01:41:11;2.10;99.90
71142;DHT22;58808;59.366;17.970;2024-02-26T01:43:36;2.10;99.90
71142;DHT22;58808;59.366;17.970;2024-02-26T01:46:03;2.20;99.90
71142;DHT22;58808;59.366;17.970;2024-02-26T01:48:29;2.20;99.90
71142;DHT22;58808;59.366;17.970;2024-02-26T01:50:55;2.20;99.90
71142;DHT22;58808;59.366;17.970;2024-02-26T01:53:21;2.10;99.90
71142;DHT22;58808;59.366;17.970;2024-02-26T01:55:47;2.20;99.90
71142;DHT22;58808;59.366;17.970;2024-02-26T01:58:14;2.10;99.90
71142;DHT22;58808;59.366;17.970;2024-02-26T02:00:40;2.10;99.90
71142;DHT22;58808;59.366;17.970;2024-02-26T02:03:06;2.10;99.90
71142;DHT22;58808;59.366;17.970;2024-02-26T02:05:32;2.10;99.90
71142;DHT22;58808;59.366;17.970;2024-02-26T02:07:59;2.10;99.90
71142;DHT22;58808;59.366;17.970;2024-02-26T02:10:26;2.20;99.90
71142;DHT22;58808;59.366;17.970;2024-02-26T02:12:52;2.20;99.90
71142;DHT22;58808;59.366;17.970;2024-02-26T02:15:18;2.20;99.90
71142;DHT22;58808;59.366;17.970;2024-02-26T02:17:44;2.30;99.90
71142;DHT22;58808;59.366;17.970;2024-02-26T02:20:15;2.30;99.90
71142;DHT22;58808;59.366;17.970;2024-02-26T02:22:42;2.40;99.90
71142;DHT22;58808;59.366;17.970;2024-02-26T02:25:07;2.40;99.90
71142;DHT22;58808;59.366;17.970;2024-02-26T02:27:33;2.40;99.90
71142;DHT22;58808;59.366;17.970;2024-02-26T02:29:59;2.40;99.90
71142;DHT22;58808;59.366;17.970;2024-02-26T02:32:25;2.30;99.90
71142;DHT22;58808;59.366;17.970;2024-02-26T02:34:52;2.30;99.90
71142;DHT22;58808;59.366;17.970;2024-02-26T02:37:17;2.30;99.90
71142;DHT22;58808;59.366;17.970;2024-02-26T02:39:43;2.30;99.90
71142;DHT22;58808;59.366;17.970;2024-02-26T02:42:10;2.30;99.90
71142;DHT22;58808;59.366;17.970;2024-02-26T02:44:36;2.30;99.90
71142;DHT22;58808;59.366;17.970;2024-02-26T02:47:01;2.30;99.90
71142;DHT22;58808;59.366;17.970;2024-02-26T02:49:27;2.30;99.90
71142;DHT22;58808;59.366;17.970;2024-02-26T02:51:52;2.30;99.90
71142;DHT22;58808;59.366;17.970;2024-02-26T02:54:20;2.30;99.90
71142;DHT22;58808;59.366;17.970;2024-02-26T02:56:45;2.30;99.90
71142;DHT22;58808;59.366;17.970;2024-02-26T02:59:11;2.40;99.90
71142;DHT22;58808;59.366;17.970;2024-02-26T03:01:37;2.50;99.90
71142;DHT22;58808;59.366;17.970;2024-02-26T03:04:02;2.50;99.90
71142;DHT22;58808;59.366;17.970;2024-02-26T03:06:28;2.50;99.90
71142;DHT22;58808;59.366;17.970;2024-02-26T03:08:54;2.50;99.90
71142;DHT22;58808;59.366;17.970;2024-02-26T03:11:20;2.50;99.90
71142;DHT22;58808;59.366;17.970;2024-02-26T03:13:46;2.50;99.90
71142;DHT22;58808;59.366;17.970;2024-02-26T03:16:12;2.50;99.90
71142;DHT22;58808;59.366;17.970;2024-02-26T03:18:40;2.50;99.90
71142;DHT22;58808;59.366;17.970;2024-02-26T03:21:07;2.50;99.90
71142;DHT22;58808;59.366;17.970;2024-02-26T03:23:33;2.50;99.90
71142;DHT22;58808;59.366;17.970;2024-02-26T03:26:03;2.50;99.90
71142;DHT22;58808;59.366;17.970;2024-02-26T03:28:29;2.50;99.90
71142;DHT22;58808;59.366;17.970;2024-02-26T03:30:56;2.50;99.90
71142;DHT22;58808;59.366;17.970;2024-02-26T03:33:21;2.50;99.90
71142;DHT22;58808;59.366;17.970;2024-02-26T03:35:47;2.50;99.90
71142;DHT22;58808;59.366;17.970;2024-02-26T03:38:13;2.50;99.90
71142;DHT22;58808;59.366;17.970;2024-02-26T03:40:39;2.50;99.90
71142;DHT22;58808;59.366;17.970;2024-02-26T03:43:04;2.50;99.90
71142;DHT22;58808;59.366;17.970;2024-02-26T03:45:32;2.40;99.90
71142;DHT22;58808;59.366;17.970;2024-02-26T03:47:58;2.40;99.90
71142;DHT22;58808;59.366;17.970;2024-02-26T03:50:24;2.40;99.90
71142;DHT22;58808;59.366;17.970;2024-02-26T03:52:50;2.40;99.90
71142;DHT22;58808;59.366;17.970;2024-02-26T03:55:16;2.40;99.90
71142;DHT22;58808;59.366;17.970;2024-02-26T03:57:46;2.30;99.90
71142;DHT22;58808;59.366;17.970;2024-02-26T04:00:12;2.30;99.90
71142;DHT22;58808;59.366;17.970;2024-02-26T04:02:38;2.40;99.90
71142;DHT22;58808;59.366;17.970;2024-02-26T04:05:04;2.40;99.90
71142;DHT22;58808;59.366;17.970;2024-02-26T04:07:30;2.40;99.90
71142;DHT22;58808;59.366;17.970;2024-02-26T04:09:56;2.40;99.90
71142;DHT22;58808;59.366;17.970;2024-02-26T04:12:21;2.40;99.90
71142;DHT22;58808;59.366;17.970;2024-02-26T04:14:47;2.30;99.90
71142;DHT22;58808;59.366;17.970;2024-02-26T04:17:13;2.30;99.90
71142;DHT22;58808;59.366;17.970;2024-02-26T04:19:38;2.30;99.90
71142;DHT22;58808;59.366;17.970;2024-02-26T04:22:07;2.30;99.90
71142;DHT22;58808;59.366;17.970;2024-02-26T04:24:32;2.30;99.90
71142;DHT22;58808;59.366;17.970;2024-02-26T04:26:58;2.20;99.90
71142;DHT22;58808;59.366;17.970;2024-02-26T04:29:24;2.20;99.90
71142;DHT22;58808;59.366;17.970;2024-02-26T04:31:49;2.20;99.90
71142;DHT22;58808;59.366;17.970;2024-02-26T04:34:15;2.20;99.90
71142;DHT22;58808;59.366;17.970;2024-02-26T04:36:41;2.20;99.90
71142;DHT22;58808;59.366;17.970;2024-02-26T04:39:08;2.20;99.90
71142;DHT22;58808;59.366;17.970;2024-02-26T04:41:33;2.20;99.90
71142;DHT22;58808;59.366;17.970;2024-02-26T04:43:59;2.10;99.90
71142;DHT22;58808;59.366;17.970;2024-02-26T04:46:25;2.10;99.90
71142;DHT22;58808;59.366;17.970;2024-02-26T04:48:51;2.00;99.90
71142;DHT22;58808;59.366;17.970;2024-02-26T04:51:16;2.00;99.90
71142;DHT22;58808;59.366;17.970;2024-02-26T04:53:42;2.00;99.90
71142;DHT22;58808;59.366;17.970;2024-02-26T04:56:08;2.00;99.90
71142;DHT22;58808;59.366;17.970;2024-02-26T04:58:33;2.00;99.90
71142;DHT22;58808;59.366;17.970;2024-02-26T05:00:59;2.00;99.90
71142;DHT22;58808;59.366;17.970;2024-02-26T05:03:25;2.00;99.90
71142;DHT22;58808;59.366;17.970;2024-02-26T05:05:50;2.00;99.90
71142;DHT22;58808;59.366;17.970;2024-02-26T05:08:16;1.90;99.90
71142;DHT22;58808;59.366;17.970;2024-02-26T05:10:42;2.00;99.90
71142;DHT22;58808;59.366;17.970;2024-02-26T05:13:08;1.90;99.90
71142;DHT22;58808;59.366;17.970;2024-02-26T05:15:35;1.90;99.90
71142;DHT22;58808;59.366;17.970;2024-02-26T05:18:01;1.90;99.90
71142;DHT22;58808;59.366;17.970;2024-02-26T05:20:26;1.90;99.90
71142;DHT22;58808;59.366;17.970;2024-02-26T05:22:52;1.90;99.90
71142;DHT22;58808;59.366;17.970;2024-02-26T05:25:18;1.80;99.90
71142;DHT22;58808;59.366;17.970;2024-02-26T05:27:44;1.80;99.90
71142;DHT22;58808;59.366;17.970;2024-02-26T05:30:10;1.80;99.90
71142;DHT22;58808;59.366;17.970;2024-02-26T05:32:36;1.80;99.90
71142;DHT22;58808;59.366;17.970;2024-02-26T05:35:02;1.80;99.90
71142;DHT22;58808;59.366;17.970;2024-02-26T05:37:30;1.80;99.90
71142;DHT22;58808;59.366;17.970;2024-02-26T05:39:56;1.90;99.90
71142;DHT22;58808;59.366;17.970;2024-02-26T05:42:22;2.00;99.90
71142;DHT22;58808;59.366;17.970;2024-02-26T05:44:47;2.00;99.90
71142;DHT22;58808;59.366;17.970;2024-02-26T05:47:13;2.00;99.90
71142;DHT22;58808;59.366;17.970;2024-02-26T05:49:39;2.00;99.90
71142;DHT22;58808;59.366;17.970;2024-02-26T05:52:05;2.00;99.90
71142;DHT22;58808;59.366;17.970;2024-02-26T05:54:31;1.90;99.90
71142;DHT22;58808;59.366;17.970;2024-02-26T05:56:57;1.90;99.90
71142;DHT22;58808;59.366;17.970;2024-02-26T05:59:23;1.90;99.90
71142;DHT22;58808;59.366;17.970;2024-02-26T06:01:49;1.80;99.90
71142;DHT22;58808;59.366;17.970;2024-02-26T06:04:15;1.90;99.90
71142;DHT22;58808;59.366;17.970;2024-02-26T06:06:42;1.80;99.90
71142;DHT22;58808;59.366;17.970;2024-02-26T06:09:08;1.80;99.90
71142;DHT22;58808;59.366;17.970;2024-02-26T06:11:33;1.80;99.90
71142;DHT22;58808;59.366;17.970;2024-02-26T06:13:59;1.80;99.90
71142;DHT22;58808;59.366;17.970;2024-02-26T06:16:25;1.80;99.90
71142;DHT22;58808;59.366;17.970;2024-02-26T06:18:50;1.80;99.90
71142;DHT22;58808;59.366;17.970;2024-02-26T06:21:16;1.80;99.90
71142;DHT22;58808;59.366;17.970;2024-02-26T06:23:42;1.80;99.90
71142;DHT22;58808;59.366;17.970;2024-02-26T06:26:07;1.80;99.90
71142;DHT22;58808;59.366;17.970;2024-02-26T06:28:33;1.80;99.90
71142;DHT22;58808;59.366;17.970;2024-02-26T06:31:01;1.80;99.90
71142;DHT22;58808;59.366;17.970;2024-02-26T06:33:27;1.80;99.90
71142;DHT22;58808;59.366;17.970;2024-02-26T06:35:52;1.80;99.90
71142;DHT22;58808;59.366;17.970;2024-02-26T06:38:18;1.90;99.90
71142;DHT22;58808;59.366;17.970;2024-02-26T06:40:44;1.90;99.90
71142;DHT22;58808;59.366;17.970;2024-02-26T06:43:10;1.90;99.90
71142;DHT22;58808;59.366;17.970;2024-02-26T06:45:36;1.90;99.90
71142;DHT22;58808;59.366;17.970;2024-02-26T06:48:01;1.90;99.90
71142;DHT22;58808;59.366;17.970;2024-02-26T06:50:28;1.90;99.90
71142;DHT22;58808;59.366;17.970;2024-02-26T06:52:53;2.00;99.90
71142;DHT22;58808;59.366;17.970;2024-02-26T06:55:19;2.00;99.90
71142;DHT22;58808;59.366;17.970;2024-02-26T06:57:45;2.00;99.90
71142;DHT22;58808;59.366;17.970;2024-02-26T07:00:11;2.00;99.90
71142;DHT22;58808;59.366;17.970;2024-02-26T07:02:40;2.10;99.90
71142;DHT22;58808;59.366;17.970;2024-02-26T07:05:06;2.00;99.90
71142;DHT22;58808;59.366;17.970;2024-02-26T07:07:32;2.00;99.90
71142;DHT22;58808;59.366;17.970;2024-02-26T07:09:58;2.00;99.90
71142;DHT22;58808;59.366;17.970;2024-02-26T07:12:23;2.00;99.90
71142;DHT22;58808;59.366;17.970;2024-02-26T07:14:49;2.00;99.90
71142;DHT22;58808;59.366;17.970;2024-02-26T07:17:16;2.00;99.90
71142;DHT22;58808;59.366;17.970;2024-02-26T07:19:42;2.00;99.90
71142;DHT22;58808;59.366;17.970;2024-02-26T07:22:08;2.10;99.90
71142;DHT22;58808;59.366;17.970;2024-02-26T07:24:34;2.10;99.90
71142;DHT22;58808;59.366;17.970;2024-02-26T07:26:59;2.10;99.90
71142;DHT22;58808;59.366;17.970;2024-02-26T07:29:25;2.20;99.90
71142;DHT22;58808;59.366;17.970;2024-02-26T07:31:51;2.20;99.90
71142;DHT22;58808;59.366;17.970;2024-02-26T07:34:16;2.20;99.90
71142;DHT22;58808;59.366;17.970;2024-02-26T07:36:42;2.30;99.90
71142;DHT22;58808;59.366;17.970;2024-02-26T07:39:08;2.30;99.90
71142;DHT22;58808;59.366;17.970;2024-02-26T07:41:34;2.30;99.90
71142;DHT22;58808;59.366;17.970;2024-02-26T07:43:59;2.30;99.90
71142;DHT22;58808;59.366;17.970;2024-02-26T07:46:25;2.30;99.90
71142;DHT22;58808;59.366;17.970;2024-02-26T07:48:51;2.40;99.90
71142;DHT22;58808;59.366;17.970;2024-02-26T07:51:16;2.50;99.90
71142;DHT22;58808;59.366;17.970;2024-02-26T07:53:45;2.50;99.90
71142;DHT22;58808;59.366;17.970;2024-02-26T07:56:10;2.50;99.90
71142;DHT22;58808;59.366;17.970;2024-02-26T07:58:36;2.60;99.90
71142;DHT22;58808;59.366;17.970;2024-02-26T08:01:02;2.60;99.90
71142;DHT22;58808;59.366;17.970;2024-02-26T08:03:27;2.60;99.90
71142;DHT22;58808;59.366;17.970;2024-02-26T08:05:53;2.70;99.90
71142;DHT22;58808;59.366;17.970;2024-02-26T08:08:19;2.80;99.90
71142;DHT22;58808;59.366;17.970;2024-02-26T08:10:44;2.80;99.90
71142;DHT22;58808;59.366;17.970;2024-02-26T08:13:10;2.90;99.90
71142;DHT22;58808;59.366;17.970;2024-02-26T08:15:36;2.90;99.90
71142;DHT22;58808;59.366;17.970;2024-02-26T08:18:05;3.00;99.90
71142;DHT22;58808;59.366;17.970;2024-02-26T08:20:31;2.90;99.90
71142;DHT22;58808;59.366;17.970;2024-02-26T08:22:57;3.00;99.90
71142;DHT22;58808;59.366;17.970;2024-02-26T08:25:23;3.00;99.90
71142;DHT22;58808;59.366;17.970;2024-02-26T08:27:49;2.90;99.90
71142;DHT22;58808;59.366;17.970;2024-02-26T08:30:16;2.90;99.90
71142;DHT22;58808;59.366;17.970;2024-02-26T08:32:48;2.90;99.90
71142;DHT22;58808;59.366;17.970;2024-02-26T08:35:14;2.90;99.90
71142;DHT22;58808;59.366;17.970;2024-02-26T08:37:40;2.90;99.90
71142;DHT22;58808;59.366;17.970;2024-02-26T08:40:07;2.90;99.90
71142;DHT22;58808;59.366;17.970;2024-02-26T08:42:32;2.90;99.90
71142;DHT22;58808;59.366;17.970;2024-02-26T08:44:58;3.00;99.90
71142;DHT22;58808;59.366;17.970;2024-02-26T08:47:26;3.00;99.90
71142;DHT22;58808;59.366;17.970;2024-02-26T08:49:53;3.00;99.90
71142;DHT22;58808;59.366;17.970;2024-02-26T08:52:19;3.00;99.90
71142;DHT22;58808;59.366;17.970;2024-02-26T08:54:44;3.00;99.90
71142;DHT22;58808;59.366;17.970;2024-02-26T08:57:10;3.10;99.90
71142;DHT22;58808;59.366;17.970;2024-02-26T08:59:36;3.10;99.90
71142;DHT22;58808;59.366;17.970;2024-02-26T09:02:02;3.10;99.90
71142;DHT22;58808;59.366;17.970;2024-02-26T09:04:28;3.20;99.90
71142;DHT22;58808;59.366;17.970;2024-02-26T09:06:53;3.20;99.90
71142;DHT22;58808;59.366;17.970;2024-02-26T09:09:19;3.20;99.90
71142;DHT22;58808;59.366;17.970;2024-02-26T09:11:45;3.20;99.90
71142;DHT22;58808;59.366;17.970;2024-02-26T09:14:12;3.10;99.90
71142;DHT22;58808;59.366;17.970;2024-02-26T09:16:38;3.10;99.90
71142;DHT22;58808;59.366;17.970;2024-02-26T09:19:03;3.10;99.90
71142;DHT22;58808;59.366;17.970;2024-02-26T09:21:29;3.10;99.90
71142;DHT22;58808;59.366;17.970;2024-02-26T09:23:56;3.20;99.90
71142;DHT22;58808;59.366;17.970;2024-02-26T09:26:21;3.20;99.90
71142;DHT22;58808;59.366;17.970;2024-02-26T09:28:47;3.20;99.90
71142;DHT22;58808;59.366;17.970;2024-02-26T09:31:15;3.30;99.90
71142;DHT22;58808;59.366;17.970;2024-02-26T09:33:42;3.30;99.90
71142;DHT22;58808;59.366;17.970;2024-02-26T09:36:08;3.30;99.90
71142;DHT22;58808;59.366;17.970;2024-02-26T09:38:35;3.40;99.90
71142;DHT22;58808;59.366;17.970;2024-02-26T09:41:06;3.40;99.90
71142;DHT22;58808;59.366;17.970;2024-02-26T09:43:35;3.40;99.90
71142;DHT22;58808;59.366;17.970;2024-02-26T09:46:02;3.40;99.90
71142;DHT22;58808;59.366;17.970;2024-02-26T09:48:29;3.40;99.90
71142;DHT22;58808;59.366;17.970;2024-02-26T09:50:55;3.40;99.90
71142;DHT22;58808;59.366;17.970;2024-02-26T09:53:22;3.40;99.90
71142;DHT22;58808;59.366;17.970;2024-02-26T09:55:48;3.50;99.90
71142;DHT22;58808;59.366;17.970;2024-02-26T09:58:14;3.50;99.90
71142;DHT22;58808;59.366;17.970;2024-02-26T10:00:47;3.50;99.90
71142;DHT22;58808;59.366;17.970;2024-02-26T10:03:14;3.60;99.90
71142;DHT22;58808;59.366;17.970;2024-02-26T10:05:41;3.50;99.90
71142;DHT22;58808;59.366;17.970;2024-02-26T10:08:08;3.60;99.90
71142;DHT22;58808;59.366;17.970;2024-02-26T10:10:35;3.60;99.90
71142;DHT22;58808;59.366;17.970;2024-02-26T10:13:01;3.60;99.90
71142;DHT22;58808;59.366;17.970;2024-02-26T10:15:29;3.70;99.90
71142;DHT22;58808;59.366;17.970;2024-02-26T10:17:55;3.70;99.90
71142;DHT22;58808;59.366;17.970;2024-02-26T10:20:20;3.80;99.90
71142;DHT22;58808;59.366;17.970;2024-02-26T10:22:50;3.80;99.90
71142;DHT22;58808;59.366;17.970;2024-02-26T10:25:16;3.80;99.90
71142;DHT22;58808;59.366;17.970;2024-02-26T10:27:42;3.80;99.90
71142;DHT22;58808;59.366;17.970;2024-02-26T10:30:21;3.90;99.90
71142;DHT22;58808;59.366;17.970;2024-02-26T10:32:48;3.90;99.90
71142;DHT22;58808;59.366;17.970;2024-02-26T10:35:15;3.90;99.90
71142;DHT22;58808;59.366;17.970;2024-02-26T10:37:43;4.00;99.90
71142;DHT22;58808;59.366;17.970;2024-02-26T10:40:13;4.00;99.90
71142;DHT22;58808;59.366;17.970;2024-02-26T10:42:39;4.00;99.90
71142;DHT22;58808;59.366;17.970;2024-02-26T10:45:06;4.00;99.90
71142;DHT22;58808;59.366;17.970;2024-02-26T10:47:32;4.00;99.90
71142;DHT22;58808;59.366;17.970;2024-02-26T10:49:59;3.90;99.90
71142;DHT22;58808;59.366;17.970;2024-02-26T10:52:27;3.90;99.90
71142;DHT22;58808;59.366;17.970;2024-02-26T10:54:57;3.90;99.90
71142;DHT22;58808;59.366;17.970;2024-02-26T10:57:27;3.90;99.90
71142;DHT22;58808;59.366;17.970;2024-02-26T10:59:55;3.90;99.90
71142;DHT22;58808;59.366;17.970;2024-02-26T11:02:21;3.90;99.90
71142;DHT22;58808;59.366;17.970;2024-02-26T11:04:47;3.90;99.90
71142;DHT22;58808;59.366;17.970;2024-02-26T11:07:14;3.90;99.90
71142;DHT22;58808;59.366;17.970;2024-02-26T11:09:40;4.00;99.90
71142;DHT22;58808;59.366;17.970;2024-02-26T11:12:11;4.10;99.90
71142;DHT22;58808;59.366;17.970;2024-02-26T11:14:40;4.10;99.90
71142;DHT22;58808;59.366;17.970;2024-02-26T11:17:08;4.20;99.90
71142;DHT22;58808;59.366;17.970;2024-02-26T11:19:36;4.30;99.90
71142;DHT22;58808;59.366;17.970;2024-02-26T11:22:02;4.30;99.90
71142;DHT22;58808;59.366;17.970;2024-02-26T11:24:28;4.40;99.90
71142;DHT22;58808;59.366;17.970;2024-02-26T11:26:58;4.50;99.90
71142;DHT22;58808;59.366;17.970;2024-02-26T11:29:32;4.50;99.90
71142;DHT22;58808;59.366;17.970;2024-02-26T11:32:00;4.60;99.90
71142;DHT22;58808;59.366;17.970;2024-02-26T11:34:26;4.70;99.90
71142;DHT22;58808;59.366;17.970;2024-02-26T11:36:52;4.70;99.90
71142;DHT22;58808;59.366;17.970;2024-02-26T11:39:18;4.70;99.90
71142;DHT22;58808;59.366;17.970;2024-02-26T11:41:45;4.70;99.90
71142;DHT22;58808;59.366;17.970;2024-02-26T11:44:11;4.70;99.90
71142;DHT22;58808;59.366;17.970;2024-02-26T11:46:41;4.70;99.90
71142;DHT22;58808;59.366;17.970;2024-02-26T11:51:56;4.70;99.90
71142;DHT22;58808;59.366;17.970;2024-02-26T11:57:37;4.70;99.90
71142;DHT22;58808;59.366;17.970;2024-02-26T12:02:47;4.80;99.90
71142;DHT22;58808;59.366;17.970;2024-02-26T12:05:17;4.90;99.90
71142;DHT22;58808;59.366;17.970;2024-02-26T12:08:04;5.10;99.90
71142;DHT22;58808;59.366;17.970;2024-02-26T12:10:34;5.20;99.90
71142;DHT22;58808;59.366;17.970;2024-02-26T12:13:06;5.20;99.90
71142;DHT22;58808;59.366;17.970;2024-02-26T12:15:38;5.30;99.90
71142;DHT22;58808;59.366;17.970;2024-02-26T12:18:06;5.40;99.90
71142;DHT22;58808;59.366;17.970;2024-02-26T12:20:33;5.40;99.90
71142;DHT22;58808;59.366;17.970;2024-02-26T12:22:59;5.40;99.90
71142;DHT22;58808;59.366;17.970;2024-02-26T12:25:26;5.40;99.90
71142;DHT22;58808;59.366;17.970;2024-02-26T12:27:55;5.40;99.90
71142;DHT22;58808;59.366;17.970;2024-02-26T12:30:22;5.50;99.90
71142;DHT22;58808;59.366;17.970;2024-02-26T12:32:52;5.50;99.90
71142;DHT22;58808;59.366;17.970;2024-02-26T12:35:18;5.50;99.90
71142;DHT22;58808;59.366;17.970;2024-02-26T12:37:44;5.50;99.90
71142;DHT22;58808;59.366;17.970;2024-02-26T12:40:11;5.50;99.90
71142;DHT22;58808;59.366;17.970;2024-02-26T12:42:38;5.50;99.90
71142;DHT22;58808;59.366;17.970;2024-02-26T12:45:09;5.60;99.90
71142;DHT22;58808;59.366;17.970;2024-02-26T12:47:39;5.60;99.90
71142;DHT22;58808;59.366;17.970;2024-02-26T12:50:05;5.60;99.90
71142;DHT22;58808;59.366;17.970;2024-02-26T12:52:33;5.60;99.90
71142;DHT22;58808;59.366;17.970;2024-02-26T12:54:59;5.60;99.90
71142;DHT22;58808;59.366;17.970;2024-02-26T12:57:25;5.70;99.90
71142;DHT22;58808;59.366;17.970;2024-02-26T12:59:52;5.80;99.90
71142;DHT22;58808;59.366;17.970;2024-02-26T13:02:18;6.00;99.90
71142;DHT22;58808;59.366;17.970;2024-02-26T13:04:44;6.30;99.90
71142;DHT22;58808;59.366;17.970;2024-02-26T13:07:10;6.60;99.90
71142;DHT22;58808;59.366;17.970;2024-02-26T13:09:36;6.70;99.90
71142;DHT22;58808;59.366;17.970;2024-02-26T13:12:06;6.80;99.90
71142;DHT22;58808;59.366;17.970;2024-02-26T13:14:32;6.80;99.90
71142;DHT22;58808;59.366;17.970;2024-02-26T13:17:00;6.70;99.90
71142;DHT22;58808;59.366;17.970;2024-02-26T13:19:26;6.50;99.90
71142;DHT22;58808;59.366;17.970;2024-02-26T13:21:53;6.60;99.90
71142;DHT22;58808;59.366;17.970;2024-02-26T13:24:20;6.60;99.90
71142;DHT22;58808;59.366;17.970;2024-02-26T13:26:46;6.70;99.90
71142;DHT22;58808;59.366;17.970;2024-02-26T13:29:18;6.70;99.90
71142;DHT22;58808;59.366;17.970;2024-02-26T13:31:44;6.50;99.90
71142;DHT22;58808;59.366;17.970;2024-02-26T13:34:10;6.40;99.90
71142;DHT22;58808;59.366;17.970;2024-02-26T13:36:35;6.30;99.90
71142;DHT22;58808;59.366;17.970;2024-02-26T13:39:01;6.30;99.90
71142;DHT22;58808;59.366;17.970;2024-02-26T13:41:30;6.20;99.90
71142;DHT22;58808;59.366;17.970;2024-02-26T13:43:56;6.10;99.90
71142;DHT22;58808;59.366;17.970;2024-02-26T13:46:23;6.10;99.90
71142;DHT22;58808;59.366;17.970;2024-02-26T13:48:49;6.00;99.90
71142;DHT22;58808;59.366;17.970;2024-02-26T13:51:14;6.00;99.90
71142;DHT22;58808;59.366;17.970;2024-02-26T13:53:40;6.00;99.90
71142;DHT22;58808;59.366;17.970;2024-02-26T13:56:06;5.90;99.90
71142;DHT22;58808;59.366;17.970;2024-02-26T13:58:32;5.80;99.90
71142;DHT22;58808;59.366;17.970;2024-02-26T14:00:58;5.80;99.90
71142;DHT22;58808;59.366;17.970;2024-02-26T14:03:25;5.80;99.90
71142;DHT22;58808;59.366;17.970;2024-02-26T14:05:50;5.80;99.90
71142;DHT22;58808;59.366;17.970;2024-02-26T14:08:16;5.80;99.90
71142;DHT22;58808;59.366;17.970;2024-02-26T14:10:42;5.70;99.90
71142;DHT22;58808;59.366;17.970;2024-02-26T14:13:07;5.70;99.90
71142;DHT22;58808;59.366;17.970;2024-02-26T14:15:34;5.70;99.90
71142;DHT22;58808;59.366;17.970;2024-02-26T14:18:01;5.70;99.90
71142;DHT22;58808;59.366;17.970;2024-02-26T14:20:28;5.70;99.90
71142;DHT22;58808;59.366;17.970;2024-02-26T14:22:54;5.70;99.90
71142;DHT22;58808;59.366;17.970;2024-02-26T14:25:20;5.60;99.90
71142;DHT22;58808;59.366;17.970;2024-02-26T14:27:47;5.50;99.90
71142;DHT22;58808;59.366;17.970;2024-02-26T14:30:13;5.50;99.90
71142;DHT22;58808;59.366;17.970;2024-02-26T14:32:39;5.40;99.90
71142;DHT22;58808;59.366;17.970;2024-02-26T14:35:07;5.30;99.90
71142;DHT22;58808;59.366;17.970;2024-02-26T14:37:33;5.20;99.90
71142;DHT22;58808;59.366;17.970;2024-02-26T14:39:58;5.00;99.90
71142;DHT22;58808;59.366;17.970;2024-02-26T14:42:24;5.00;99.90
71142;DHT22;58808;59.366;17.970;2024-02-26T14:44:50;4.90;99.90
71142;DHT22;58808;59.366;17.970;2024-02-26T14:47:16;4.90;99.90
71142;DHT22;58808;59.366;17.970;2024-02-26T14:49:42;4.90;99.90
71142;DHT22;58808;59.366;17.970;2024-02-26T14:52:08;4.90;99.90
71142;DHT22;58808;59.366;17.970;2024-02-26T14:54:33;5.00;99.90
71142;DHT22;58808;59.366;17.970;2024-02-26T14:57:04;5.00;99.90
71142;DHT22;58808;59.366;17.970;2024-02-26T14:59:30;5.00;99.90
71142;DHT22;58808;59.366;17.970;2024-02-26T15:01:57;5.10;99.90
71142;DHT22;58808;59.366;17.970;2024-02-26T15:04:23;5.10;99.90
71142;DHT22;58808;59.366;17.970;2024-02-26T15:06:48;5.10;99.90
71142;DHT22;58808;59.366;17.970;2024-02-26T15:09:14;5.00;99.90
71142;DHT22;58808;59.366;17.970;2024-02-26T15:11:40;5.00;99.90
71142;DHT22;58808;59.366;17.970;2024-02-26T15:14:07;5.00;99.90
71142;DHT22;58808;59.366;17.970;2024-02-26T15:16:32;5.00;99.90
71142;DHT22;58808;59.366;17.970;2024-02-26T15:18:58;4.90;99.90
71142;DHT22;58808;59.366;17.970;2024-02-26T15:21:24;5.00;99.90
71142;DHT22;58808;59.366;17.970;2024-02-26T15:23:49;4.90;99.90
71142;DHT22;58808;59.366;17.970;2024-02-26T15:26:17;4.90;99.90
71142;DHT22;58808;59.366;17.970;2024-02-26T15:28:43;4.90;99.90
71142;DHT22;58808;59.366;17.970;2024-02-26T15:31:09;4.80;99.90
71142;DHT22;58808;59.366;17.970;2024-02-26T15:33:34;4.70;99.90